메인 페이지
METAR-TAF:

METAR-TAF

공항 :

Mosinee, 위스콘신, 미국

위도: 44-47N, 경도: 089-40W, 고도: 389m

현재 날씨관측

예보는 16분 전, 01:50시(UTC)에 발표되었습니다.
남서7kt
온도 18°C
습도 59%
기압 1007 hPa
시정: 16.1km
고도 6000ft 상공 구름 보통

METAR: KCWA 230150Z 22007KT 10SM SCT060 18/10 A2974

시각: 21:06 (02:06 UTC)

예보

예보는 2 시간 44분 전, 23:22시(UTC)에 발표되었습니다.
예보 대상 시간: 23일 00시부터 23일 24시까지 (UTC)
10kt
시정: 10km
고도 5000ft 상공 구름 보통
고도 7000ft 상공 구름 많음
23일 0100시부터 (UTC)
9kt
시정: 10km
고도 5000ft 상공 구름 보통
고도 7000ft 상공 구름 많음
23일 0500시부터 (UTC)
서남서6kt
시정: 10km
고도 4500ft 상공 구름 보통
23일 0900시부터 (UTC)
서남서7kt
시정: 10km
고도 2500ft 상공 구름 보통
23일 1100시부터 (UTC)
11kt, 순간 최대 풍속 17kt
시정: 10km
고도 2400ft 상공 구름 많음
23일 1700시부터 (UTC)
13kt, 순간 최대 풍속 21kt
시정: 10km
고도 4000ft 상공 구름 많음

TAF: KCWA 222322Z 2300/2324 17010KT P6SM SCT050 BKN070 FM230100 17009KT P6SM SCT050 BKN070 FM230500 24006KT P6SM SCT045 WS020/26035KT FM230900 24007KT P6SM SCT025 FM231100 26011G17KT P6SM BKN024 FM231700 28013G21KT P6SM BKN040 AMD LTD TO CLD VIS AND WIND 2303/2311

4,000개 이상의 공항 관측 자료 및 예보 (METAR 및 TAF 보고).

지도상에서 검색 가능한 기상관측소가 노란 점과 빨간 점으로 표시되어 있습니다.

기상관측소 명을 보려면 표시 위로 마우스를 이동하세요.

날씨 관측과 예보를 보려면 클릭하세요.

지도 변경 : 확대하려면 엑스 표시가 있는 녹색 버튼, 축소하려면 빼기 표시가 있는 녹색 버튼, 다음 페이지의 지도를 보려면 녹색 화살표를 클릭하세요.


METAR-TAF: